Time;durP1;ratioP1;P1;durP2;ratioP2;P2;SDS_P1;SDS_P2;PMS_P1;PMS_P2;Temp;Humidity;BMP_temperature;BMP_pressure;BME280_temperature;BME280_humidity;BME280_pressure;Samples;Min_cycle;Max_cycle;Signal;HPM_P1;HPM_P2
2022/03/23 00:00:27;;;;;;;;;;;13.40;63.70;;;;;;4330811;33;43953;-87
2022/03/23 00:02:55;;;;;;;;;;;13.40;63.90;;;;;;4316369;33;44318;-87
2022/03/23 00:05:25;;;;;;;;;;;13.40;64.40;;;;;;4317489;33;42560;-86
2022/03/23 00:07:52;;;;;;;;;;;13.40;64.20;;;;;;4317087;33;43215;-86
2022/03/23 00:10:19;;;;;;;;;;;13.40;64.20;;;;;;4330110;33;44155;-86
2022/03/23 00:12:46;;;;;;;;;;;13.40;64.10;;;;;;4317369;33;45556;-87
2022/03/23 00:15:13;;;;;;;;;;;13.40;64.30;;;;;;4317339;33;46110;-86
2022/03/23 00:17:40;;;;;;;;;;;13.30;64.20;;;;;;4317287;33;45782;-86
2022/03/23 00:20:08;;;;;;;;;;;13.40;64.90;;;;;;4317444;33;44369;-86
2022/03/23 00:22:35;;;;;;;;;;;13.40;64.90;;;;;;4330082;33;44368;-86
2022/03/23 00:25:03;;;;;;;;;;;13.40;66.40;;;;;;4317150;33;44848;-86
2022/03/23 00:27:30;;;;;;;;;;;13.40;66.80;;;;;;4317336;33;43871;-86
2022/03/23 00:29:57;;;;;;;;;;;13.30;66.20;;;;;;4330230;33;46085;-86
2022/03/23 00:32:24;;;;;;;;;;;13.30;67.00;;;;;;4330068;33;42736;-86
2022/03/23 00:34:51;;;;;;;;;;;13.40;67.50;;;;;;4317394;33;43949;-86
2022/03/23 00:37:19;;;;;;;;;;;13.40;68.00;;;;;;4330212;33;42616;-86
2022/03/23 00:39:46;;;;;;;;;;;13.40;67.60;;;;;;4330413;33;43205;-85
2022/03/23 00:42:13;;;;;;;;;;;13.30;66.60;;;;;;4330316;33;44589;-86
2022/03/23 00:44:40;;;;;;;;;;;13.30;66.70;;;;;;4330271;33;45080;-87
2022/03/23 00:47:08;;;;;;;;;;;13.30;67.90;;;;;;4330860;33;43313;-87
2022/03/23 00:49:36;;;;;;;;;;;13.30;68.40;;;;;;4330393;33;43887;-86
2022/03/23 00:52:06;;;;;;;;;;;13.30;67.10;;;;;;4317001;33;43371;-86
2022/03/23 00:54:34;;;;;;;;;;;13.30;67.30;;;;;;4317093;33;43828;-86
2022/03/23 00:57:03;;;;;;;;;;;13.20;68.20;;;;;;4329813;33;44248;-86
2022/03/23 00:59:30;;;;;;;;;;;13.20;68.00;;;;;;4316923;33;42731;-86
2022/03/23 01:01:58;;;;;;;;;;;13.20;68.30;;;;;;4316604;33;43910;-86
2022/03/23 01:04:25;;;;;;;;;;;13.20;68.80;;;;;;4329911;33;45691;-86
2022/03/23 01:06:52;;;;;;;;;;;13.20;67.80;;;;;;4316605;33;42990;-86
2022/03/23 01:09:23;;;;;;;;;;;13.20;67.20;;;;;;4330126;33;43206;-87
2022/03/23 01:11:51;;;;;;;;;;;13.10;66.50;;;;;;4316760;33;43942;-86
2022/03/23 01:14:18;;;;;;;;;;;13.10;66.30;;;;;;4331861;33;44052;-87
2022/03/23 01:16:46;;;;;;;;;;;13.00;65.80;;;;;;4319191;33;43228;-86
2022/03/23 01:19:13;;;;;;;;;;;12.90;67.20;;;;;;4332832;33;43510;-87
2022/03/23 01:21:40;;;;;;;;;;;13.00;68.90;;;;;;4332253;33;44882;-87
2022/03/23 01:24:07;;;;;;;;;;;13.00;69.50;;;;;;4332396;33;43801;-87
2022/03/23 01:26:34;;;;;;;;;;;13.10;69.40;;;;;;4332230;33;44784;-86
2022/03/23 01:29:03;;;;;;;;;;;13.00;69.40;;;;;;4319133;33;43878;-87
2022/03/23 01:31:31;;;;;;;;;;;13.00;69.60;;;;;;4332744;33;43031;-86
2022/03/23 01:33:59;;;;;;;;;;;13.00;69.80;;;;;;4332542;33;44926;-86
2022/03/23 01:36:27;;;;;;;;;;;13.00;69.80;;;;;;4332198;33;44774;-86
2022/03/23 01:38:54;;;;;;;;;;;13.00;69.70;;;;;;4332543;33;43034;-87
2022/03/23 01:41:21;;;;;;;;;;;12.90;68.10;;;;;;4332109;33;42615;-86
2022/03/23 01:43:48;;;;;;;;;;;12.90;69.00;;;;;;4332030;33;43520;-86
2022/03/23 01:46:17;;;;;;;;;;;12.90;68.70;;;;;;4332566;33;44195;-86
2022/03/23 01:48:44;;;;;;;;;;;12.90;67.60;;;;;;4318850;33;44224;-86
2022/03/23 01:51:12;;;;;;;;;;;12.80;66.60;;;;;;4331969;33;44079;-86
2022/03/23 01:53:40;;;;;;;;;;;12.70;65.60;;;;;;4331843;33;44067;-87
2022/03/23 01:56:09;;;;;;;;;;;12.70;68.10;;;;;;4332296;33;43197;-86
2022/03/23 01:58:37;;;;;;;;;;;12.70;66.70;;;;;;4331939;33;44121;-86
2022/03/23 02:01:04;;;;;;;;;;;12.60;67.00;;;;;;4319296;33;43897;-86
2022/03/23 02:03:32;;;;;;;;;;;12.60;68.30;;;;;;4332055;33;42951;-86
2022/03/23 02:05:59;;;;;;;;;;;12.60;68.60;;;;;;4318977;33;44215;-86
2022/03/23 02:08:27;;;;;;;;;;;12.60;68.00;;;;;;4318465;33;44034;-86
2022/03/23 02:10:54;;;;;;;;;;;12.60;68.70;;;;;;4331617;33;42523;-86
2022/03/23 02:13:21;;;;;;;;;;;12.60;67.60;;;;;;4331564;33;43519;-86
2022/03/23 02:15:48;;;;;;;;;;;12.60;67.40;;;;;;4331901;33;44149;-86
2022/03/23 02:18:15;;;;;;;;;;;12.60;67.90;;;;;;4331887;33;44119;-86
2022/03/23 02:20:42;;;;;;;;;;;12.50;68.00;;;;;;4331910;33;42419;-86
2022/03/23 02:23:10;;;;;;;;;;;12.50;67.50;;;;;;4331777;33;43215;-86
2022/03/23 02:25:37;;;;;;;;;;;12.50;67.70;;;;;;4318386;33;43473;-86
2022/03/23 02:28:04;;;;;;;;;;;12.50;68.60;;;;;;4331732;33;44450;-86
2022/03/23 02:30:31;;;;;;;;;;;12.50;68.80;;;;;;4331353;33;42473;-86
2022/03/23 02:32:59;;;;;;;;;;;12.60;68.80;;;;;;4331722;33;44317;-86
2022/03/23 02:35:26;;;;;;;;;;;12.50;69.20;;;;;;4331689;33;43518;-86
2022/03/23 02:37:53;;;;;;;;;;;12.60;68.70;;;;;;4331382;33;42352;-85
2022/03/23 02:40:20;;;;;;;;;;;12.60;69.10;;;;;;4331151;33;43305;-86
2022/03/23 02:42:47;;;;;;;;;;;12.60;69.30;;;;;;4318183;33;43676;-86
2022/03/23 02:45:15;;;;;;;;;;;12.60;69.10;;;;;;4318353;33;44158;-86
2022/03/23 02:47:42;;;;;;;;;;;12.60;68.20;;;;;;4318481;33;43950;-86
2022/03/23 02:50:10;;;;;;;;;;;12.50;67.90;;;;;;4331652;33;43277;-86
2022/03/23 03:01:52;;;;;;;;;;;12.50;67.60;;;;;;4318320;33;44957;-86
2022/03/23 03:03:59;;;;;;;;;;;12.40;69.60;;;;;;4331462;33;44017;-86
2022/03/23 03:06:26;;;;;;;;;;;12.50;70.00;;;;;;4317702;33;43077;-85
2022/03/23 03:08:53;;;;;;;;;;;12.50;70.00;;;;;;4317972;33;44493;-85
2022/03/23 03:11:21;;;;;;;;;;;12.40;70.20;;;;;;4330748;33;42531;-86
2022/03/23 03:13:48;;;;;;;;;;;12.40;68.80;;;;;;4331366;33;44142;-86
2022/03/23 03:16:16;;;;;;;;;;;12.30;67.70;;;;;;4331021;33;43927;-86
2022/03/23 03:18:44;;;;;;;;;;;12.20;67.20;;;;;;4330763;33;44039;-85
2022/03/23 03:21:11;;;;;;;;;;;12.20;67.90;;;;;;4331028;33;42840;-86
2022/03/23 03:23:41;;;;;;;;;;;12.10;68.10;;;;;;4330988;33;44263;-86
2022/03/23 03:26:09;;;;;;;;;;;12.10;69.10;;;;;;4331411;33;20002;-86
2022/03/23 03:28:38;;;;;;;;;;;12.00;67.90;;;;;;4330955;33;43597;-85
2022/03/23 03:31:07;;;;;;;;;;;12.00;68.40;;;;;;4317983;33;43496;-86
2022/03/23 03:33:34;;;;;;;;;;;11.90;68.40;;;;;;4330534;33;45093;-85
2022/03/23 03:36:02;;;;;;;;;;;11.90;68.20;;;;;;4317355;33;42806;-85
2022/03/23 03:38:30;;;;;;;;;;;11.80;68.40;;;;;;4317559;33;43255;-86
2022/03/23 03:40:58;;;;;;;;;;;11.80;68.40;;;;;;4330714;33;43484;-85
2022/03/23 03:43:25;;;;;;;;;;;11.80;69.00;;;;;;4317252;33;44243;-85
2022/03/23 03:45:52;;;;;;;;;;;11.80;68.60;;;;;;4317683;33;44381;-85
2022/03/23 03:48:19;;;;;;;;;;;11.80;69.50;;;;;;4330254;33;42251;-85
2022/03/23 03:50:46;;;;;;;;;;;11.80;68.90;;;;;;4330668;33;44265;-85
2022/03/23 03:53:13;;;;;;;;;;;11.80;69.10;;;;;;4317180;33;45814;-85
2022/03/23 03:55:41;;;;;;;;;;;11.80;69.80;;;;;;4317130;33;43620;-86
2022/03/23 03:58:12;;;;;;;;;;;11.80;70.50;;;;;;4330534;33;43478;-86
2022/03/23 04:00:39;;;;;;;;;;;11.80;70.60;;;;;;4317455;33;44590;-85
2022/03/23 04:03:06;;;;;;;;;;;11.80;71.20;;;;;;4316855;33;43056;-85
2022/03/23 04:05:34;;;;;;;;;;;11.80;68.90;;;;;;4330326;33;42875;-86
2022/03/23 04:08:01;;;;;;;;;;;11.80;68.90;;;;;;4317180;33;43990;-86
2022/03/23 04:10:28;;;;;;;;;;;11.80;70.00;;;;;;4317329;33;44145;-85
2022/03/23 04:12:56;;;;;;;;;;;11.80;69.80;;;;;;4316930;33;43623;-86
2022/03/23 04:15:25;;;;;;;;;;;11.80;69.30;;;;;;4330210;33;43000;-85
2022/03/23 04:17:53;;;;;;;;;;;11.70;69.40;;;;;;4330485;33;43491;-86
2022/03/23 04:20:20;;;;;;;;;;;11.70;69.30;;;;;;4317012;33;43497;-86
2022/03/23 04:22:47;;;;;;;;;;;11.70;71.00;;;;;;4330678;33;44022;-86
2022/03/23 04:25:14;;;;;;;;;;;11.80;70.60;;;;;;4330162;33;43526;-86
2022/03/23 04:27:48;;;;;;;;;;;11.70;69.60;;;;;;4317282;33;43759;-85
2022/03/23 04:30:17;;;;;;;;;;;11.70;69.80;;;;;;4330465;33;44212;-86
2022/03/23 04:32:49;;;;;;;;;;;11.70;69.80;;;;;;4329980;33;44030;-85
2022/03/23 04:35:16;;;;;;;;;;;11.70;69.30;;;;;;4316722;33;45769;-85
2022/03/23 04:37:44;;;;;;;;;;;11.70;70.70;;;;;;4330192;33;42301;-85
2022/03/23 04:40:11;;;;;;;;;;;11.80;71.10;;;;;;4329945;33;43608;-85
2022/03/23 04:42:40;;;;;;;;;;;11.80;71.00;;;;;;4316829;33;43824;-85
2022/03/23 04:45:08;;;;;;;;;;;11.70;70.10;;;;;;4329891;33;42739;-85
2022/03/23 04:47:35;;;;;;;;;;;11.70;69.40;;;;;;4317015;33;42898;-85
2022/03/23 04:50:03;;;;;;;;;;;11.70;68.20;;;;;;4332669;33;42829;-85
2022/03/23 04:52:30;;;;;;;;;;;11.70;69.60;;;;;;4332635;33;44097;-85
2022/03/23 04:54:57;;;;;;;;;;;11.60;69.40;;;;;;4320162;33;45157;-85
2022/03/23 04:57:28;;;;;;;;;;;11.60;68.40;;;;;;4333669;33;22698;-85
2022/03/23 04:59:56;;;;;;;;;;;11.60;67.90;;;;;;4319912;33;44272;-85
2022/03/23 05:02:23;;;;;;;;;;;11.60;68.70;;;;;;4332609;33;43766;-85
2022/03/23 05:04:50;;;;;;;;;;;11.60;68.10;;;;;;4332542;33;44517;-85
2022/03/23 05:07:17;;;;;;;;;;;11.50;69.30;;;;;;4332523;33;43320;-85
2022/03/23 05:09:44;;;;;;;;;;;11.60;71.10;;;;;;4319544;33;44907;-85
2022/03/23 05:12:11;;;;;;;;;;;11.60;70.30;;;;;;4319629;33;44600;-85
2022/03/23 05:14:38;;;;;;;;;;;11.60;69.80;;;;;;4319531;33;43844;-85
2022/03/23 05:17:05;;;;;;;;;;;11.60;70.90;;;;;;4332648;33;44691;-85
2022/03/23 05:19:35;;;;;;;;;;;11.60;71.00;;;;;;4319210;33;44677;-85
2022/03/23 05:22:02;;;;;;;;;;;11.60;70.60;;;;;;4332817;33;43547;-85
2022/03/23 05:24:29;;;;;;;;;;;11.60;69.80;;;;;;4332268;33;42858;-85
2022/03/23 05:26:56;;;;;;;;;;;11.60;70.70;;;;;;4332193;33;43598;-85
2022/03/23 05:29:23;;;;;;;;;;;11.60;70.80;;;;;;4332242;33;44130;-85
2022/03/23 05:31:50;;;;;;;;;;;11.60;70.30;;;;;;4319266;33;43696;-84
2022/03/23 05:34:18;;;;;;;;;;;11.50;70.10;;;;;;4319201;33;45108;-85
2022/03/23 05:36:45;;;;;;;;;;;11.60;71.70;;;;;;4332513;33;42952;-85
2022/03/23 05:39:12;;;;;;;;;;;11.50;71.10;;;;;;4319384;33;43191;-84
2022/03/23 05:41:39;;;;;;;;;;;11.60;71.60;;;;;;4332107;33;43312;-85
2022/03/23 05:44:07;;;;;;;;;;;11.60;71.90;;;;;;4332034;33;45084;-85
2022/03/23 05:46:34;;;;;;;;;;;11.60;70.90;;;;;;4319317;33;43572;-85
2022/03/23 05:49:01;;;;;;;;;;;11.50;72.10;;;;;;4331912;33;42830;-85
2022/03/23 05:51:28;;;;;;;;;;;11.50;72.10;;;;;;4319219;33;43890;-85
2022/03/23 05:53:55;;;;;;;;;;;11.60;72.40;;;;;;4318659;33;44117;-85
2022/03/23 05:56:23;;;;;;;;;;;11.60;72.30;;;;;;4319294;33;43289;-85
2022/03/23 05:58:50;;;;;;;;;;;11.50;71.20;;;;;;4331835;33;44193;-85
2022/03/23 06:01:17;;;;;;;;;;;11.50;70.60;;;;;;4331439;33;42420;-85
2022/03/23 06:03:44;;;;;;;;;;;11.50;70.90;;;;;;4331635;33;43461;-85
2022/03/23 06:06:11;;;;;;;;;;;11.50;71.20;;;;;;4332302;33;43966;-85
2022/03/23 06:08:38;;;;;;;;;;;11.40;71.10;;;;;;4318956;33;42990;-85
2022/03/23 06:11:05;;;;;;;;;;;11.40;72.40;;;;;;4318518;33;44085;-85
2022/03/23 06:13:32;;;;;;;;;;;11.50;71.30;;;;;;4318693;33;43892;-85
2022/03/23 06:15:59;;;;;;;;;;;11.50;71.30;;;;;;4331679;33;43762;-84
2022/03/23 06:18:26;;;;;;;;;;;11.40;71.90;;;;;;4331750;33;43719;-85
2022/03/23 06:20:54;;;;;;;;;;;11.40;71.80;;;;;;4331471;33;44157;-85
2022/03/23 06:23:22;;;;;;;;;;;11.40;71.40;;;;;;4331442;33;43516;-85
2022/03/23 06:25:49;;;;;;;;;;;11.30;72.20;;;;;;4331492;33;44567;-85
2022/03/23 06:28:16;;;;;;;;;;;11.30;72.30;;;;;;4318285;33;42954;-85
2022/03/23 06:30:43;;;;;;;;;;;11.20;72.60;;;;;;4319018;33;43298;-85
2022/03/23 06:33:11;;;;;;;;;;;11.20;72.70;;;;;;4318171;33;44075;-85
2022/03/23 06:35:38;;;;;;;;;;;11.20;73.00;;;;;;4318099;33;44047;-85
2022/03/23 06:38:06;;;;;;;;;;;11.10;72.80;;;;;;4318165;33;43002;-84
2022/03/23 06:40:34;;;;;;;;;;;11.10;73.40;;;;;;4331778;33;43513;-84
2022/03/23 06:43:01;;;;;;;;;;;11.10;74.20;;;;;;4318057;33;43244;-84
2022/03/23 06:45:31;;;;;;;;;;;11.10;73.70;;;;;;4318361;33;43330;-84
2022/03/23 06:47:58;;;;;;;;;;;11.10;74.40;;;;;;4331496;33;44193;-85
2022/03/23 06:50:25;;;;;;;;;;;11.10;74.70;;;;;;4318408;33;43897;-84
2022/03/23 06:52:52;;;;;;;;;;;11.20;75.10;;;;;;4331158;33;44179;-84
2022/03/23 06:55:21;;;;;;;;;;;11.20;75.00;;;;;;4331611;33;43909;-84
2022/03/23 06:57:49;;;;;;;;;;;11.20;75.10;;;;;;4330999;33;42356;-84
2022/03/23 07:00:16;;;;;;;;;;;11.20;75.80;;;;;;4317818;33;43485;-84
2022/03/23 07:02:43;;;;;;;;;;;11.30;76.50;;;;;;4317696;33;44066;-84
2022/03/23 07:05:11;;;;;;;;;;;11.20;75.50;;;;;;4331294;33;42494;-84
2022/03/23 07:09:31;;;;;;;;;;;11.20;75.80;;;;;;4331018;33;44049;-84
2022/03/23 07:10:26;;;;;;;;;;;11.20;76.10;;;;;;4331182;33;43497;-84
2022/03/23 07:12:54;;;;;;;;;;;11.30;77.20;;;;;;4317738;33;43103;-85
2022/03/23 07:15:21;;;;;;;;;;;11.30;75.80;;;;;;4330789;33;43356;-84
2022/03/23 07:17:48;;;;;;;;;;;11.30;75.90;;;;;;4331340;33;44179;-85
2022/03/23 07:20:16;;;;;;;;;;;11.30;76.00;;;;;;4330789;33;42251;-85
2022/03/23 07:22:43;;;;;;;;;;;11.30;76.10;;;;;;4330525;33;43808;-85
2022/03/23 07:25:11;;;;;;;;;;;11.30;76.90;;;;;;4331073;33;44703;-85
2022/03/23 07:27:38;;;;;;;;;;;11.30;76.20;;;;;;4317955;33;44198;-85
2022/03/23 07:30:06;;;;;;;;;;;11.40;76.60;;;;;;4317269;33;44220;-85
2022/03/23 07:32:38;;;;;;;;;;;11.40;76.80;;;;;;4317435;33;44298;-85
2022/03/23 07:35:06;;;;;;;;;;;11.40;77.30;;;;;;4331269;33;44333;-85
2022/03/23 07:37:34;;;;;;;;;;;11.40;77.50;;;;;;4317391;33;45661;-85
2022/03/23 07:40:01;;;;;;;;;;;11.40;77.40;;;;;;4330474;33;43898;-84
2022/03/23 07:42:30;;;;;;;;;;;11.50;77.10;;;;;;4330889;33;43017;-85
2022/03/23 07:44:57;;;;;;;;;;;11.50;76.20;;;;;;4330412;33;43401;-85
2022/03/23 07:47:30;;;;;;;;;;;11.50;76.10;;;;;;4330275;33;43872;-84
2022/03/23 07:49:57;;;;;;;;;;;11.60;76.80;;;;;;4317151;33;42704;-84
2022/03/23 07:52:24;;;;;;;;;;;11.50;75.80;;;;;;4330573;33;43867;-84
2022/03/23 07:54:52;;;;;;;;;;;11.60;76.80;;;;;;4317541;33;43804;-84
2022/03/23 07:57:19;;;;;;;;;;;11.60;76.40;;;;;;4330559;33;44185;-84
2022/03/23 07:59:46;;;;;;;;;;;11.60;77.40;;;;;;4317592;33;43471;-85
2022/03/23 08:02:13;;;;;;;;;;;11.60;77.40;;;;;;4330153;33;43401;-84
2022/03/23 08:04:41;;;;;;;;;;;11.70;77.20;;;;;;4317324;33;44205;-85
2022/03/23 08:07:08;;;;;;;;;;;11.70;77.00;;;;;;4330627;33;45906;-84
2022/03/23 08:09:35;;;;;;;;;;;11.70;76.50;;;;;;4330045;33;45790;-84
2022/03/23 08:12:02;;;;;;;;;;;11.70;77.20;;;;;;4317425;33;44337;-84
2022/03/23 08:14:30;;;;;;;;;;;11.70;77.40;;;;;;4317082;33;44076;-84
2022/03/23 08:16:57;;;;;;;;;;;11.70;77.60;;;;;;4330203;33;44805;-85
2022/03/23 08:19:25;;;;;;;;;;;11.70;76.80;;;;;;4330377;33;43522;-84
2022/03/23 08:21:53;;;;;;;;;;;11.80;77.20;;;;;;4330458;33;42827;-84
2022/03/23 08:24:20;;;;;;;;;;;11.80;77.10;;;;;;4319660;33;42867;-84
2022/03/23 08:26:47;;;;;;;;;;;11.80;77.70;;;;;;4333013;33;43213;-85
2022/03/23 08:29:14;;;;;;;;;;;11.80;78.40;;;;;;4319990;33;43805;-85
2022/03/23 08:31:42;;;;;;;;;;;11.80;78.30;;;;;;4333036;33;44438;-84
2022/03/23 08:34:09;;;;;;;;;;;11.90;77.80;;;;;;4333017;33;43410;-84
2022/03/23 08:36:37;;;;;;;;;;;11.90;78.20;;;;;;4320175;33;43491;-84
2022/03/23 08:39:05;;;;;;;;;;;11.90;78.30;;;;;;4332891;33;43040;-84
2022/03/23 08:41:34;;;;;;;;;;;11.90;78.10;;;;;;4332998;33;43045;-84
2022/03/23 08:44:01;;;;;;;;;;;11.90;78.10;;;;;;4333128;33;43963;-84
2022/03/23 08:46:28;;;;;;;;;;;11.90;78.20;;;;;;4332998;33;43769;-84
2022/03/23 08:48:55;;;;;;;;;;;11.90;78.10;;;;;;4332906;33;45712;-84
2022/03/23 08:51:23;;;;;;;;;;;11.90;79.00;;;;;;4319892;33;43017;-84
2022/03/23 08:53:50;;;;;;;;;;;11.90;79.00;;;;;;4320006;33;44316;-85
2022/03/23 08:56:17;;;;;;;;;;;12.00;79.40;;;;;;4320106;33;43019;-84
2022/03/23 08:58:49;;;;;;;;;;;12.00;79.30;;;;;;4333704;33;20348;-84
2022/03/23 09:01:17;;;;;;;;;;;12.00;79.20;;;;;;4333076;33;44167;-84
2022/03/23 09:03:45;;;;;;;;;;;12.00;79.30;;;;;;4319696;33;43230;-84
2022/03/23 09:06:12;;;;;;;;;;;12.00;79.70;;;;;;4319403;33;43565;-84
2022/03/23 09:08:39;;;;;;;;;;;12.00;80.30;;;;;;4319802;33;43114;-84
2022/03/23 09:11:07;;;;;;;;;;;12.10;80.40;;;;;;4319426;33;42415;-84
2022/03/23 09:13:34;;;;;;;;;;;12.10;80.60;;;;;;4319761;33;43046;-85
2022/03/23 09:16:02;;;;;;;;;;;12.10;79.90;;;;;;4319612;33;43470;-84
2022/03/23 09:18:29;;;;;;;;;;;12.10;80.00;;;;;;4319307;33;43990;-84
2022/03/23 09:20:57;;;;;;;;;;;12.10;80.30;;;;;;4319768;33;43946;-84
2022/03/23 09:23:31;;;;;;;;;;;12.10;80.40;;;;;;4319976;33;44269;-84
2022/03/23 09:26:01;;;;;;;;;;;12.20;80.70;;;;;;4332542;33;42602;-84
2022/03/23 09:28:28;;;;;;;;;;;12.10;80.50;;;;;;4332244;33;43307;-84
2022/03/23 09:30:56;;;;;;;;;;;12.10;81.00;;;;;;4319417;33;44063;-84
2022/03/23 09:33:23;;;;;;;;;;;12.20;81.10;;;;;;4319343;33;43510;-85
2022/03/23 09:35:51;;;;;;;;;;;12.20;81.20;;;;;;4332685;33;43237;-84
2022/03/23 09:38:18;;;;;;;;;;;12.20;81.10;;;;;;4319027;33;44675;-84
2022/03/23 09:40:51;;;;;;;;;;;12.20;81.50;;;;;;4319123;33;43002;-85
2022/03/23 09:43:23;;;;;;;;;;;12.20;81.80;;;;;;4332237;33;42312;-85
2022/03/23 09:45:51;;;;;;;;;;;12.30;82.70;;;;;;4332622;33;43949;-84
2022/03/23 09:48:21;;;;;;;;;;;12.30;82.10;;;;;;4319182;33;44731;-85
2022/03/23 09:50:51;;;;;;;;;;;12.30;81.90;;;;;;4319224;33;43866;-85
2022/03/23 09:53:19;;;;;;;;;;;12.30;82.30;;;;;;4318704;33;44759;-83
2022/03/23 09:55:48;;;;;;;;;;;12.30;82.70;;;;;;4332212;33;44052;-83
2022/03/23 09:58:15;;;;;;;;;;;12.40;82.50;;;;;;4331908;33;43486;-83
2022/03/23 10:00:44;;;;;;;;;;;12.40;82.80;;;;;;4318665;33;42764;-83
2022/03/23 10:03:11;;;;;;;;;;;12.40;82.70;;;;;;4331726;33;44183;-83
2022/03/23 10:05:44;;;;;;;;;;;12.40;82.60;;;;;;4318758;33;43482;-83
2022/03/23 10:08:30;;;;;;;;;;;12.40;82.80;;;;;;4332000;33;43497;-83
2022/03/23 10:11:17;;;;;;;;;;;12.40;83.00;;;;;;4318924;33;45123;-84
2022/03/23 10:14:03;;;;;;;;;;;12.50;83.00;;;;;;4318449;33;45050;-84
2022/03/23 10:16:36;;;;;;;;;;;12.50;82.90;;;;;;4318981;33;43414;-83
2022/03/23 10:19:03;;;;;;;;;;;12.50;83.10;;;;;;4318741;33;45133;-84
2022/03/23 10:21:38;;;;;;;;;;;12.60;83.20;;;;;;4318970;33;45456;-84
2022/03/23 10:24:06;;;;;;;;;;;12.60;83.20;;;;;;4318404;33;44076;-84
2022/03/23 10:26:36;;;;;;;;;;;12.60;83.20;;;;;;4318245;33;43869;-84
2022/03/23 10:29:19;;;;;;;;;;;12.60;83.30;;;;;;4318804;33;44387;-84
2022/03/23 10:31:46;;;;;;;;;;;12.60;83.40;;;;;;4331823;33;44057;-85
2022/03/23 10:34:14;;;;;;;;;;;12.70;83.50;;;;;;4331912;33;43494;-84
2022/03/23 10:36:44;;;;;;;;;;;12.70;83.60;;;;;;4318013;33;45073;-84
2022/03/23 10:39:12;;;;;;;;;;;12.70;83.40;;;;;;4331605;33;45924;-84
2022/03/23 10:41:40;;;;;;;;;;;12.80;84.00;;;;;;4318369;33;43020;-84
2022/03/23 10:44:16;;;;;;;;;;;12.80;83.90;;;;;;4318337;33;44021;-84
2022/03/23 10:46:44;;;;;;;;;;;12.80;83.80;;;;;;4317479;33;45777;-84
2022/03/23 10:49:13;;;;;;;;;;;12.80;83.80;;;;;;4331207;33;43458;-84
2022/03/23 10:51:41;;;;;;;;;;;12.90;84.30;;;;;;4318299;33;45517;-84
2022/03/23 10:54:18;;;;;;;;;;;12.90;84.10;;;;;;4318004;33;43249;-84
2022/03/23 10:56:45;;;;;;;;;;;12.90;84.30;;;;;;4331662;33;42660;-85
2022/03/23 10:59:15;;;;;;;;;;;13.00;84.20;;;;;;4318258;33;43470;-84
2022/03/23 11:01:57;;;;;;;;;;;13.00;84.50;;;;;;4318352;33;20249;-84
2022/03/23 11:04:30;;;;;;;;;;;13.00;84.70;;;;;;4331182;33;44339;-84
2022/03/23 11:06:58;;;;;;;;;;;13.00;84.50;;;;;;4317744;33;45030;-84
2022/03/23 11:18:06;;;;;;;;;;;13.10;84.80;;;;;;4330716;33;43819;-84
2022/03/23 11:20:49;;;;;;;;;;;13.10;84.80;;;;;;4317602;33;44110;-84
2022/03/23 11:23:19;;;;;;;;;;;13.20;84.50;;;;;;4331043;33;44168;-83
2022/03/23 11:25:47;;;;;;;;;;;13.20;84.60;;;;;;4317410;33;44010;-83
2022/03/23 11:28:15;;;;;;;;;;;13.20;84.80;;;;;;4317406;33;43207;-84
2022/03/23 11:30:42;;;;;;;;;;;13.20;84.30;;;;;;4317700;33;44951;-84
2022/03/23 11:33:11;;;;;;;;;;;13.30;84.10;;;;;;4330498;33;44998;-84
2022/03/23 11:35:46;;;;;;;;;;;13.30;83.50;;;;;;4317539;33;45462;-83
2022/03/23 11:38:14;;;;;;;;;;;13.30;84.00;;;;;;4330923;33;45910;-84
2022/03/23 11:40:42;;;;;;;;;;;13.40;83.50;;;;;;4317276;33;42982;-83
2022/03/23 11:43:10;;;;;;;;;;;13.40;83.40;;;;;;4317644;33;44097;-84
2022/03/23 11:45:58;;;;;;;;;;;13.40;82.80;;;;;;4319895;33;45288;-84
2022/03/23 11:48:31;;;;;;;;;;;13.40;82.60;;;;;;4317285;33;42246;-84
2022/03/23 11:51:28;;;;;;;;;;;13.50;82.70;;;;;;4317761;33;43206;-84
2022/03/23 11:54:01;;;;;;;;;;;13.50;82.60;;;;;;4307825;33;43473;-84
2022/03/23 11:56:35;;;;;;;;;;;13.60;81.80;;;;;;4330675;33;43613;-84
2022/03/23 11:59:18;;;;;;;;;;;13.60;81.90;;;;;;4330091;33;42962;-85
2022/03/23 12:01:45;;;;;;;;;;;13.60;82.00;;;;;;4317598;33;43486;-85
2022/03/23 12:04:15;;;;;;;;;;;13.60;82.10;;;;;;4317685;33;44115;-84
2022/03/23 12:06:43;;;;;;;;;;;13.70;81.30;;;;;;4317055;33;43215;-84
2022/03/23 12:09:28;;;;;;;;;;;13.70;81.00;;;;;;4317489;33;44065;-84
2022/03/23 12:11:55;;;;;;;;;;;13.70;81.70;;;;;;4316956;33;44484;-84
2022/03/23 12:14:23;;;;;;;;;;;13.70;82.10;;;;;;4317507;33;44340;-84
2022/03/23 12:16:50;;;;;;;;;;;13.70;82.10;;;;;;4330526;33;44863;-84
2022/03/23 12:20:07;;;;;;;;;;;13.70;81.60;;;;;;4330598;33;45244;-84
2022/03/23 12:22:35;;;;;;;;;;;13.80;81.50;;;;;;4321233;33;44117;-83
2022/03/23 12:25:21;;;;;;;;;;;13.80;80.80;;;;;;4317207;33;42587;-84
2022/03/23 12:27:52;;;;;;;;;;;13.90;80.00;;;;;;4330153;33;43536;-84
2022/03/23 12:30:31;;;;;;;;;;;13.90;80.20;;;;;;4317270;33;42155;-84
2022/03/23 12:33:00;;;;;;;;;;;14.00;78.70;;;;;;4317273;33;44779;-84
2022/03/23 12:35:30;;;;;;;;;;;14.00;77.70;;;;;;4316772;33;43997;-84
2022/03/23 12:38:01;;;;;;;;;;;14.10;78.10;;;;;;4330570;33;45681;-84
2022/03/23 12:40:38;;;;;;;;;;;14.10;78.20;;;;;;4317216;33;42819;-84
2022/03/23 12:43:05;;;;;;;;;;;14.10;78.10;;;;;;4330232;33;43903;-84
2022/03/23 12:45:34;;;;;;;;;;;14.20;78.50;;;;;;4317076;33;45047;-84
2022/03/23 12:48:07;;;;;;;;;;;14.20;77.00;;;;;;4317167;33;44234;-84
2022/03/23 12:59:18;;;;;;;;;;;14.40;77.50;;;;;;4330156;33;43775;-84
2022/03/23 13:01:45;;;;;;;;;;;14.50;76.00;;;;;;4316936;33;44341;-85
2022/03/23 13:04:35;;;;;;;;;;;14.50;75.50;;;;;;4330303;33;41948;-85
2022/03/23 13:07:22;;;;;;;;;;;14.50;77.00;;;;;;4317227;33;44546;-85
2022/03/23 13:09:49;;;;;;;;;;;14.60;77.40;;;;;;4318434;33;43925;-85
2022/03/23 13:12:21;;;;;;;;;;;14.60;77.80;;;;;;4319728;33;43871;-84
2022/03/23 13:14:49;;;;;;;;;;;14.60;77.50;;;;;;4332921;33;44223;-84
2022/03/23 13:17:17;;;;;;;;;;;14.60;76.70;;;;;;4332877;33;44227;-84
2022/03/23 13:19:44;;;;;;;;;;;14.70;76.00;;;;;;4332481;33;43492;-84
2022/03/23 13:22:11;;;;;;;;;;;14.70;76.00;;;;;;4332913;33;45859;-84
2022/03/23 13:24:38;;;;;;;;;;;14.70;76.50;;;;;;4331766;33;44768;-84
2022/03/23 13:27:12;;;;;;;;;;;14.70;76.20;;;;;;4319564;33;44208;-84
2022/03/23 13:29:40;;;;;;;;;;;14.80;76.50;;;;;;4319384;33;43063;-85
2022/03/23 13:32:09;;;;;;;;;;;14.80;76.40;;;;;;4319762;33;43865;-84
2022/03/23 13:34:39;;;;;;;;;;;14.90;76.60;;;;;;4332388;33;43497;-84
2022/03/23 13:37:06;;;;;;;;;;;14.90;75.50;;;;;;4319944;33;20006;-84
2022/03/23 13:39:33;;;;;;;;;;;15.00;75.90;;;;;;4319243;33;44473;-83
2022/03/23 13:44:56;;;;;;;;;;;15.10;76.80;;;;;;4332151;33;44211;-84
2022/03/23 13:47:33;;;;;;;;;;;15.10;76.30;;;;;;4319164;33;44308;-83
2022/03/23 13:50:01;;;;;;;;;;;15.10;76.10;;;;;;4319405;33;44227;-84
2022/03/23 13:52:33;;;;;;;;;;;15.20;73.80;;;;;;4331991;33;44175;-84
2022/03/23 13:55:01;;;;;;;;;;;15.20;74.00;;;;;;4319257;33;45210;-84
2022/03/23 13:57:29;;;;;;;;;;;15.20;75.80;;;;;;4332306;33;43100;-84
2022/03/23 13:59:56;;;;;;;;;;;15.30;75.10;;;;;;4318938;33;44048;-84
2022/03/23 14:02:27;;;;;;;;;;;15.30;75.20;;;;;;4318747;33;44554;-84
2022/03/23 14:05:18;;;;;;;;;;;15.30;76.60;;;;;;4332225;33;46492;-84
2022/03/23 14:07:45;;;;;;;;;;;15.40;76.80;;;;;;4332683;33;20460;-84
2022/03/23 14:10:12;;;;;;;;;;;15.40;74.90;;;;;;4332220;33;44873;-84
2022/03/23 14:12:39;;;;;;;;;;;15.50;76.60;;;;;;4331699;33;42972;-84
2022/03/23 14:15:26;;;;;;;;;;;15.50;76.00;;;;;;4332100;33;45231;-84
2022/03/23 14:17:57;;;;;;;;;;;15.50;75.00;;;;;;4332040;33;43934;-84
2022/03/23 14:20:25;;;;;;;;;;;15.50;75.50;;;;;;4331487;33;44518;-84
2022/03/23 14:22:53;;;;;;;;;;;15.60;76.30;;;;;;4331628;33;43505;-84
2022/03/23 14:25:20;;;;;;;;;;;15.60;76.40;;;;;;4331453;33;42552;-84
2022/03/23 14:27:49;;;;;;;;;;;15.60;77.00;;;;;;4318809;33;44168;-83
2022/03/23 14:30:17;;;;;;;;;;;15.70;76.80;;;;;;4331363;33;43101;-84
2022/03/23 14:32:50;;;;;;;;;;;15.70;76.90;;;;;;4318200;33;44285;-84
2022/03/23 14:35:18;;;;;;;;;;;15.70;78.70;;;;;;4331629;33;42696;-84
2022/03/23 14:37:47;;;;;;;;;;;15.80;76.90;;;;;;4319203;33;20005;-84
2022/03/23 14:40:31;;;;;;;;;;;15.80;76.40;;;;;;4331783;33;44227;-85
2022/03/23 14:42:59;;;;;;;;;;;15.80;77.60;;;;;;4318517;33;42654;-85
2022/03/23 14:45:42;;;;;;;;;;;15.90;76.70;;;;;;4318209;33;43327;-84
2022/03/23 14:48:16;;;;;;;;;;;15.90;77.80;;;;;;4331648;33;45622;-84
2022/03/23 14:50:44;;;;;;;;;;;15.90;77.80;;;;;;4331367;33;45892;-84
2022/03/23 14:53:11;;;;;;;;;;;15.90;79.10;;;;;;4331031;33;44113;-84
2022/03/23 14:55:39;;;;;;;;;;;16.00;78.00;;;;;;4331315;33;44265;-84